Terminal Aerodrome Forecast
Issued by NWS Jacksonville, FL

Current Version | Previous Version | Text Only | Print | Product List | Glossary On
Versions: 1 2 3 4 5 6 7 8 9 10 11 12 13 14 15
000
FTUS42 KJAX 241721
TAFSSI
TAF
KSSI 241721Z 2418/2518 06008KT P6SM BKN030 BKN080
     FM250000 VRB03KT P6SM SCT250
     FM251500 04008KT P6SM VCTS BKN040CB=

USA.gov is the U.S. government's official web portal to all federal, state and local government web resources and services.